Jack Brusco — WDC3066 — position and weather

sailwx.info

Track history (hours):
 
Tides and Currents Weather Stations Pressure Air Temp Water Temp Dewpoint Dewpoint Depression Visibility Wind Speed Wind Dir Waves Ship Positions

Jack Brusco

Owner: Brusco Tug & Barge, Inc., Longview, WA. More information available from US FCC via Universal Licensing System and Coast Guard Vessel Documentation Center.

Last reported at 2017-Jan-16 10:31 UTC. Time now 2017-Jan-23 04:29 UTC.
Position N 46°55' W 124°08'.

Length 36 m; draft 5.2 m.

Type: Tug. MMSI: 3699086.

Date/timePositionNaut miles runAvg speedWind from/ knotsBaromVisibWave heightAir tempDewpointWater temp
2017-Jan-16 10:31N 46°55' W 124°08'6 6.6
2017-Jan-16 09:34N 46°52' W 124°16'5 4.7
2017-Jan-16 08:33N 46°48' W 124°21'5 4.8
2017-Jan-16 07:33N 46°45' W 124°26'6 5.9
2017-Jan-16 06:34N 46°39' W 124°25'6 5.7
2017-Jan-16 05:34N 46°34' W 124°23'6 5.8
2017-Jan-16 04:34N 46°28' W 124°22'6 5.9
2017-Jan-16 03:33N 46°22' W 124°21'6 5.8
2017-Jan-16 02:34N 46°17' W 124°19'6 5.7
2017-Jan-16 01:33N 46°12' W 124°14'7 6.7
2017-Jan-16 00:34N 46°15' W 124°05'10 9.7
2017-Jan-15 23:33N 46°12' W 123°52'9 9.4
2017-Jan-15 22:34N 46°15' W 123°40'9 8.8
2017-Jan-15 21:33N 46°16' W 123°27'9 9.2
2017-Jan-15 20:33N 46°09' W 123°18'1111.0
2017-Jan-15 19:34N 46°09' W 123°02'3 2.5
2017-Jan-15 18:33N 46°07' W 122°59'10 9.6
2017-Jan-15 17:34N 46°11' W 123°13'9 9.1
2017-Jan-15 16:34N 46°11' W 123°26'2 2.0
2017-Jan-15 15:33N 46°12' W 123°23'0 0.0
2017-Jan-15 14:34N 46°12' W 123°23'0 0.0
2017-Jan-15 13:34N 46°12' W 123°23'0 0.0
2017-Jan-15 12:34N 46°12' W 123°23'0 0.0
2017-Jan-15 11:34N 46°12' W 123°23'0 0.0
2017-Jan-15 10:34N 46°12' W 123°23'0 0.0
2017-Jan-15 09:34N 46°12' W 123°23'0 0.0
2017-Jan-15 08:34N 46°12' W 123°23'0 0.0
2017-Jan-15 07:34N 46°12' W 123°23'0 0.0
2017-Jan-15 06:34N 46°12' W 123°23'0 0.0
2017-Jan-15 05:34N 46°12' W 123°23'0 0.0
2017-Jan-15 04:34N 46°12' W 123°23'0 0.0
2017-Jan-15 03:34N 46°12' W 123°23'0 0.0
2017-Jan-15 02:34N 46°12' W 123°23'0 0.0
2017-Jan-15 01:33N 46°12' W 123°23'0 0.0
2017-Jan-15 00:34N 46°12' W 123°23'0 0.0
2017-Jan-14 23:33N 46°12' W 123°23'0 0.0
2017-Jan-14 22:34N 46°12' W 123°23'0 0.0
2017-Jan-14 21:34N 46°12' W 123°23'0 0.0
2017-Jan-14 20:33N 46°12' W 123°23'0 0.0
2017-Jan-14 19:34N 46°12' W 123°23'0 0.0
2017-Jan-14 18:34N 46°12' W 123°23'0 0.0
2017-Jan-14 17:34N 46°12' W 123°23'0 0.0
2017-Jan-14 16:33N 46°12' W 123°23'0 0.0
2017-Jan-14 15:34N 46°12' W 123°23'0 0.0
2017-Jan-14 14:34N 46°12' W 123°23'0 0.0
2017-Jan-14 13:34N 46°12' W 123°23'0 0.0
2017-Jan-14 12:33N 46°12' W 123°23'0 0.0
2017-Jan-14 11:34N 46°12' W 123°23'0 0.0
2017-Jan-14 10:34N 46°12' W 123°23'0 0.0
2017-Jan-14 09:33N 46°12' W 123°23'0 0.0
2017-Jan-14 08:34N 46°12' W 123°23'0 0.0
2017-Jan-14 07:33N 46°12' W 123°23'0 0.0
2017-Jan-14 06:33N 46°12' W 123°23'0 0.0
2017-Jan-14 05:34N 46°12' W 123°23'0 0.0
2017-Jan-14 04:34N 46°12' W 123°23'0 0.0
2017-Jan-14 03:34N 46°12' W 123°23'4 1.0
2017-Jan-13 23:34N 46°15' W 123°27'1111.3
2017-Jan-13 22:34N 46°14' W 123°43'1110.6
2017-Jan-13 21:34N 46°14' W 123°58'10 9.8
2017-Jan-13 20:34N 46°13' W 124°12'9 9.1
2017-Jan-13 19:34N 46°20' W 124°20'1110.9
2017-Jan-13 18:33N 46°31' W 124°23'1111.4
2017-Jan-13 17:34N 46°42' W 124°26'1211.6
2017-Jan-13 16:33N 46°54' W 124°30'9311.6
2017-Jan-13 08:33N 48°26' W 124°44'1111.6
2017-Jan-13 07:34N 48°22' W 124°28'1513.6
2017-Jan-13 06:29N 48°15' W 124°08'1413.6
2017-Jan-13 05:27N 48°12' W 123°48'1416.0
2017-Jan-13 04:33N 48°12' W 123°26'3513.9
2017-Jan-13 02:03N 48°01' W 122°37'815.1
2017-Jan-13 01:34N 47°55' W 122°29'1413.6
2017-Jan-13 00:33N 47°42' W 122°26'7 6.6
2017-Jan-12 23:33N 47°36' W 122°23'7 7.2
2017-Jan-12 22:33N 47°42' W 122°27'10 9.9
2017-Jan-12 21:33N 47°52' W 122°29'28 9.0
2017-Jan-12 18:25N 48°11' W 122°60'9 9.6
2017-Jan-12 17:32N 48°12' W 123°13'37 9.0
2017-Jan-12 13:22N 48°17' W 124°08'810.1
2017-Jan-12 12:32N 48°20' W 124°20'1111.1
2017-Jan-12 11:33N 48°25' W 124°35'10 9.8
2017-Jan-12 10:33N 48°23' W 124°49'8310.0
2017-Jan-12 02:14N 47°01' W 124°32'710.3
2017-Jan-12 01:33N 46°54' W 124°30'1010.3
2017-Jan-12 00:33N 46°44' W 124°27'1010.3
2017-Jan-11 23:33N 46°34' W 124°24'1010.2
2017-Jan-11 22:33N 46°24' W 124°21'1010.2
2017-Jan-11 21:33N 46°14' W 124°17'7 7.5
2017-Jan-11 20:33N 46°14' W 124°07'7 7.3
2017-Jan-11 19:33N 46°12' W 123°56'8 8.0
2017-Jan-11 18:34N 46°13' W 123°45'8 8.5
2017-Jan-11 17:33N 46°15' W 123°33'7 6.7
2017-Jan-11 16:33N 46°12' W 123°24'1 0.9
2017-Jan-11 15:33N 46°12' W 123°23'0 0.0
2017-Jan-11 14:33N 46°12' W 123°23'0 0.0
2017-Jan-10 15:23N 46°12' W 123°23'  
Track history (hours):
 
Tides and Currents Weather Stations Pressure Air Temp Water Temp Dewpoint Dewpoint Depression Visibility Wind Speed Wind Dir Waves Ship Positions

Jack Brusco

Owner: Brusco Tug & Barge, Inc., Longview, WA. More information available from US FCC via Universal Licensing System and Coast Guard Vessel Documentation Center.

Last reported at 2017-Jan-16 10:31 UTC. Time now 2017-Jan-23 04:29 UTC.
Position N 46°55' W 124°08'.

Length 36 m; draft 5.2 m.

Type: Tug. MMSI: 3699086.

Date/timePositionNaut miles runAvg speedWind from/ knotsBaromVisibWave heightAir tempDewpointWater temp
2017-Jan-16 10:31N 46°55' W 124°08'6 6.6
2017-Jan-16 09:34N 46°52' W 124°16'5 4.7
2017-Jan-16 08:33N 46°48' W 124°21'5 4.8
2017-Jan-16 07:33N 46°45' W 124°26'6 5.9
2017-Jan-16 06:34N 46°39' W 124°25'6 5.7
2017-Jan-16 05:34N 46°34' W 124°23'6 5.8
2017-Jan-16 04:34N 46°28' W 124°22'6 5.9
2017-Jan-16 03:33N 46°22' W 124°21'6 5.8
2017-Jan-16 02:34N 46°17' W 124°19'6 5.7
2017-Jan-16 01:33N 46°12' W 124°14'7 6.7
2017-Jan-16 00:34N 46°15' W 124°05'10 9.7
2017-Jan-15 23:33N 46°12' W 123°52'9 9.4
2017-Jan-15 22:34N 46°15' W 123°40'9 8.8
2017-Jan-15 21:33N 46°16' W 123°27'9 9.2
2017-Jan-15 20:33N 46°09' W 123°18'1111.0
2017-Jan-15 19:34N 46°09' W 123°02'3 2.5
2017-Jan-15 18:33N 46°07' W 122°59'10 9.6
2017-Jan-15 17:34N 46°11' W 123°13'9 9.1
2017-Jan-15 16:34N 46°11' W 123°26'2 2.0
2017-Jan-15 15:33N 46°12' W 123°23'0 0.0
2017-Jan-15 14:34N 46°12' W 123°23'0 0.0
2017-Jan-15 13:34N 46°12' W 123°23'0 0.0
2017-Jan-15 12:34N 46°12' W 123°23'0 0.0
2017-Jan-15 11:34N 46°12' W 123°23'0 0.0
2017-Jan-15 10:34N 46°12' W 123°23'0 0.0
2017-Jan-15 09:34N 46°12' W 123°23'0 0.0
2017-Jan-15 08:34N 46°12' W 123°23'0 0.0
2017-Jan-15 07:34N 46°12' W 123°23'0 0.0
2017-Jan-15 06:34N 46°12' W 123°23'0 0.0
2017-Jan-15 05:34N 46°12' W 123°23'0 0.0
2017-Jan-15 04:34N 46°12' W 123°23'0 0.0
2017-Jan-15 03:34N 46°12' W 123°23'0 0.0
2017-Jan-15 02:34N 46°12' W 123°23'0 0.0
2017-Jan-15 01:33N 46°12' W 123°23'0 0.0
2017-Jan-15 00:34N 46°12' W 123°23'0 0.0
2017-Jan-14 23:33N 46°12' W 123°23'0 0.0
2017-Jan-14 22:34N 46°12' W 123°23'0 0.0
2017-Jan-14 21:34N 46°12' W 123°23'0 0.0
2017-Jan-14 20:33N 46°12' W 123°23'0 0.0
2017-Jan-14 19:34N 46°12' W 123°23'0 0.0
2017-Jan-14 18:34N 46°12' W 123°23'0 0.0
2017-Jan-14 17:34N 46°12' W 123°23'0 0.0
2017-Jan-14 16:33N 46°12' W 123°23'0 0.0
2017-Jan-14 15:34N 46°12' W 123°23'0 0.0
2017-Jan-14 14:34N 46°12' W 123°23'0 0.0
2017-Jan-14 13:34N 46°12' W 123°23'0 0.0
2017-Jan-14 12:33N 46°12' W 123°23'0 0.0
2017-Jan-14 11:34N 46°12' W 123°23'0 0.0
2017-Jan-14 10:34N 46°12' W 123°23'0 0.0
2017-Jan-14 09:33N 46°12' W 123°23'0 0.0
2017-Jan-14 08:34N 46°12' W 123°23'0 0.0
2017-Jan-14 07:33N 46°12' W 123°23'0 0.0
2017-Jan-14 06:33N 46°12' W 123°23'0 0.0
2017-Jan-14 05:34N 46°12' W 123°23'0 0.0
2017-Jan-14 04:34N 46°12' W 123°23'0 0.0
2017-Jan-14 03:34N 46°12' W 123°23'4 1.0
2017-Jan-13 23:34N 46°15' W 123°27'1111.3
2017-Jan-13 22:34N 46°14' W 123°43'1110.6
2017-Jan-13 21:34N 46°14' W 123°58'10 9.8
2017-Jan-13 20:34N 46°13' W 124°12'9 9.1
2017-Jan-13 19:34N 46°20' W 124°20'1110.9
2017-Jan-13 18:33N 46°31' W 124°23'1111.4
2017-Jan-13 17:34N 46°42' W 124°26'1211.6
2017-Jan-13 16:33N 46°54' W 124°30'9311.6
2017-Jan-13 08:33N 48°26' W 124°44'1111.6
2017-Jan-13 07:34N 48°22' W 124°28'1513.6
2017-Jan-13 06:29N 48°15' W 124°08'1413.6
2017-Jan-13 05:27N 48°12' W 123°48'1416.0
2017-Jan-13 04:33N 48°12' W 123°26'3513.9
2017-Jan-13 02:03N 48°01' W 122°37'815.1
2017-Jan-13 01:34N 47°55' W 122°29'1413.6
2017-Jan-13 00:33N 47°42' W 122°26'7 6.6
2017-Jan-12 23:33N 47°36' W 122°23'7 7.2
2017-Jan-12 22:33N 47°42' W 122°27'10 9.9
2017-Jan-12 21:33N 47°52' W 122°29'28 9.0
2017-Jan-12 18:25N 48°11' W 122°60'9 9.6
2017-Jan-12 17:32N 48°12' W 123°13'37 9.0
2017-Jan-12 13:22N 48°17' W 124°08'810.1
2017-Jan-12 12:32N 48°20' W 124°20'1111.1
2017-Jan-12 11:33N 48°25' W 124°35'10 9.8
2017-Jan-12 10:33N 48°23' W 124°49'8310.0
2017-Jan-12 02:14N 47°01' W 124°32'710.3
2017-Jan-12 01:33N 46°54' W 124°30'1010.3
2017-Jan-12 00:33N 46°44' W 124°27'1010.3
2017-Jan-11 23:33N 46°34' W 124°24'1010.2
2017-Jan-11 22:33N 46°24' W 124°21'1010.2
2017-Jan-11 21:33N 46°14' W 124°17'7 7.5
2017-Jan-11 20:33N 46°14' W 124°07'7 7.3
2017-Jan-11 19:33N 46°12' W 123°56'8 8.0
2017-Jan-11 18:34N 46°13' W 123°45'8 8.5
2017-Jan-11 17:33N 46°15' W 123°33'7 6.7
2017-Jan-11 16:33N 46°12' W 123°24'1 0.9
2017-Jan-11 15:33N 46°12' W 123°23'0 0.0
2017-Jan-11 14:33N 46°12' W 123°23'0 0.0
2017-Jan-10 15:23N 46°12' W 123°23'  

Dump ship's entire track history